메인 페이지
METAR-TAF:

METAR-TAF

공항 :

두샨베, 타지키스탄

위도: 38-33N, 경도: 068-47E, 고도: 803m

현재 날씨관측

예보는 13분 전, 23:30시(UTC)에 발표되었습니다.
여러 방향의 바람 2kt
온도 16°C
습도 77%
기압 1012 hPa
시정 10km 이상
고도 11000ft 상공 구름 조금

METAR: UTDD 262330Z VRB01MPS 9999 FEW110 16/12 Q1012 R09/CLRD// NOSIG RMK QFE691/0922

시각: 04:43 (23:43 UTC)

예보

예보는 2 시간 43분 전, 21:00시(UTC)에 발표되었습니다.
예보 대상 시간: 26일 22시부터 27일 10시까지 (UTC)
여러 방향의 바람 4kt
시정: 6000m
고도 6600ft 상공 구름 조금, 적란운.
고도 15000ft 상공 구름 보통

TAF: UTDD 262100Z 2622/2710 VRB02MPS 6000 FEW066CB SCT150

4,000개 이상의 공항 관측 자료 및 예보 (METAR 및 TAF 보고).

지도상에서 검색 가능한 기상관측소가 노란 점과 빨간 점으로 표시되어 있습니다.

기상관측소 명을 보려면 표시 위로 마우스를 이동하세요.

날씨 관측과 예보를 보려면 클릭하세요.

지도 변경 : 확대하려면 엑스 표시가 있는 녹색 버튼, 축소하려면 빼기 표시가 있는 녹색 버튼, 다음 페이지의 지도를 보려면 녹색 화살표를 클릭하세요.


METAR-TAF: